Curug, Indonesia

6:05 PM WIB on November 23, 2014 (GMT +0700)
Soekarno-Hatta International | Change Station
CLOSE
Current Station
Airport
Location: Jakarta Soekarno-Hatta,
Elevation: 26 ft
Nearby Weather Stations

Elev 26 ft 6.13 °S, 106.66 °E | Updated 5 minutes ago

Scattered Clouds
Scattered Clouds
84 °F
Feels Like 92 °F
N
5
Wind Variable Wind from Variable

Today
High -- | Low -- °F
--% Chance of Precip.
Yesterday
High -- | Low -- °F
Precip. -- in
5:26 AM 5:52 PM
New Moon, 1% visible
Pressure 29.77 in
Visibility 4.3 miles
Clouds Few 1600 ft
Scattered Clouds 2000 ft
Heat Index 92 °F
Dew Point 75 °F
Humidity 74%
Rainfall 0.00 in
Snow Depth Not available.
UV 0 out of 12
Pollen Not available.
Air Quality Not available.
Flu Activity Not available.
METAR WIII 231100Z VRB04KT 7000 FEW016CB SCT020 29/24 Q1008 NOSIG RMK CB TO S AND SW

More Conditions Fewer Conditions

Pressure 29.77 in
Visibility 4.3 miles
Clouds Few 1600 ft
Scattered Clouds 2000 ft
Heat Index 92 °F
Dew Point 75 °F
Humidity 74%
Rainfall 0.00 in
Snow Depth Not available.
UV 0 out of 12
Pollen Not available.
Air Quality Not available.
Flu Activity Not available.
METAR WIII 231100Z VRB04KT 7000 FEW016CB SCT020 29/24 Q1008 NOSIG RMK CB TO S AND SW

More Conditions Fewer Conditions

10-Day Weather Forecast

Almanac

Astronomy

Nov. 23, 2014 Rise Set
Actual Time
Civil Twilight
Nautical Twilight
Astronomical Twilight
Moon
Length of Visible Light
Length of Day
Tomorrow will be .
, % of the Moon is Illuminated

Today's Extremes

Country Highs Country Lows

Community

WunderPhotos

Upload Photos

1,773,033 photos uploaded!

WunderBlogs® & News

Nearby

Air Quality

  Air Quality AQ Index Pollutant
Not available.

Snow Depth

Station Depth Elevation

Earthquake Activity

City Distance Mag. Time & Date
Minimum magnitude displayed is 2.5.

Coastal Water Temperatures

Place Temperature

Nearby Weather Stations